Date,TemperatureHighF,TemperatureAvgF,TemperatureLowF,DewpointHighF,DewpointAvgF,DewpointLowF,HumidityHigh,HumidityAvg,HumidityLow,PressureMaxIn,PressureMinIn,WindSpeedMaxMPH,WindSpeedAvgMPH,GustSpeedMaxMPH,PrecipitationSumIn
2013-8-1,84.7,72.5,67.3,75.7,69.6,64.2,97,92,58,29.94,29.73,16,0,16,0.00
2013-8-2,88.8,76.1,65.2,71.0,65.4,61.3,98,73,42,29.90,29.78,8,0,10,0.00
2013-8-3,87.2,76.7,69.1,68.2,65.7,61.8,90,71,47,29.88,29.81,11,0,12,0.00
2013-8-4,81.8,74.0,63.4,68.7,59.8,51.2,93,65,37,29.95,29.80,17,2,17,0.00
2013-8-5,83.2,70.7,59.3,60.6,56.8,50.6,92,65,33,30.03,29.94,7,0,9,0.00
2013-8-6,74.6,68.9,63.4,67.8,65.2,60.0,97,88,77,29.99,29.91,9,0,12,0.00
2013-8-7,88.6,78.1,69.1,69.9,67.7,64.0,94,73,47,29.99,29.92,12,1,13,0.00
2013-8-8,89.9,80.9,73.5,73.0,70.9,66.8,90,73,49,29.96,29.89,12,0,13,0.00
2013-8-9,93.2,83.9,76.0,76.2,73.2,71.1,87,72,52,29.89,29.79,17,1,20,0.00
2013-8-10,86.5,77.5,70.6,74.2,71.3,67.4,95,82,61,30.00,29.86,22,0,23,0.00
2013-8-11,82.6,76.0,70.9,73.8,71.5,69.8,97,87,71,30.03,29.91,5,0,6,0.00
2013-8-12,89.5,79.9,71.5,74.0,70.8,66.6,97,76,49,29.94,29.81,8,0,11,0.00
2013-8-13,87.8,79.6,74.9,74.4,71.3,68.1,91,77,57,29.81,29.64,13,0,13,0.00
2013-8-14,76.5,68.0,57.6,70.4,54.4,45.4,91,64,42,30.03,29.70,16,2,18,0.00
2013-8-15,78.3,65.6,56.2,59.2,55.2,51.8,92,71,44,30.11,30.02,7,0,8,0.00
2013-8-16,76.8,65.6,55.1,59.3,56.2,52.7,97,74,45,30.13,30.04,9,0,10,0.00
2013-8-17,78.6,68.8,59.3,66.1,61.3,55.8,95,78,55,30.15,30.09,10,0,10,0.00
2013-8-18,67.9,65.4,63.9,66.0,64.3,62.5,97,96,94,30.14,30.05,12,1,18,0.00
2013-8-19,73.0,67.6,63.5,68.5,65.7,62.8,98,94,83,30.14,30.01,6,0,7,0.00
2013-8-20,85.3,75.0,66.3,71.8,68.7,65.4,98,83,53,30.09,30.02,5,0,6,0.00
2013-8-21,91.0,78.4,68.9,73.2,70.9,67.9,97,80,52,30.12,29.99,6,0,10,0.00
2013-8-22,91.2,80.1,73.0,72.2,68.9,63.3,94,71,40,30.01,29.87,7,0,10,0.00
2013-8-23,79.4,70.3,61.3,71.7,67.3,59.2,97,91,69,30.03,29.83,13,0,14,0.00
2013-8-24,82.6,68.9,58.0,66.7,61.0,57.4,98,79,48,30.25,30.03,7,0,11,0.00
2013-8-25,80.7,69.2,59.8,65.8,58.7,51.2,98,73,37,30.34,30.22,10,0,10,0.00
2013-8-26,86.7,71.4,56.3,63.4,58.5,54.2,95,67,40,30.25,29.97,8,0,10,0.00
2013-8-27,90.3,76.8,66.8,74.2,65.8,57.1,95,71,49,29.97,29.81,10,0,11,0.00
2013-8-28,79.8,74.5,70.9,74.0,71.4,67.4,97,91,72,29.85,29.73,13,0,13,0.00
2013-8-29,84.7,75.3,68.9,72.6,70.4,66.1,98,86,61,29.94,29.71,13,1,13,0.00
2013-8-30,88.8,75.5,64.3,69.6,66.2,63.4,98,76,46,29.98,29.83,6,0,8,0.00
2013-8-31,89.5,78.3,69.1,72.6,69.0,66.0,92,75,53,29.85,29.72,12,1,14,0.00